createdAt,value
2022-10-04T00:02:02.047Z,91.82
2022-10-04T00:04:48.706Z,91.86
2022-10-04T00:07:25.249Z,91.59
2022-10-04T00:10:14.694Z,91.47
2022-10-04T00:12:58.985Z,91.54
2022-10-04T00:15:39.503Z,91.63
2022-10-04T00:18:21.867Z,91.66
2022-10-04T00:20:56.671Z,91.59
2022-10-04T00:23:40.519Z,91.58
2022-10-04T00:26:27.260Z,91.73
2022-10-04T00:28:57.642Z,91.92
2022-10-04T00:31:28.854Z,92.06
2022-10-04T00:34:16.235Z,91.92
2022-10-04T00:36:58.036Z,91.68
2022-10-04T00:39:35.291Z,91.88
2022-10-04T00:42:31.568Z,92.00
2022-10-04T00:45:29.297Z,92.12
2022-10-04T00:48:18.800Z,92.21
2022-10-04T00:50:56.789Z,92.23
2022-10-04T00:53:49.646Z,92.51
2022-10-04T00:56:48.823Z,92.65
2022-10-04T00:59:44.718Z,92.79
2022-10-04T01:02:40.753Z,92.87
2022-10-04T01:05:21.040Z,92.92
2022-10-04T01:08:05.198Z,93.02
2022-10-04T01:10:47.788Z,93.08
2022-10-04T01:13:22.463Z,92.96
2022-10-04T01:16:00.838Z,92.94
2022-10-04T01:18:34.844Z,92.99
2022-10-04T01:21:21.286Z,93.11
2022-10-04T01:24:02.846Z,93.18
2022-10-04T01:26:39.960Z,93.10
2022-10-04T01:29:19.289Z,93.20
2022-10-04T01:31:50.733Z,93.26
2022-10-04T01:34:23.466Z,93.33
2022-10-04T01:36:55.120Z,93.14
2022-10-04T01:39:25.545Z,93.28
2022-10-04T01:42:18.399Z,93.41
2022-10-04T01:45:12.347Z,93.50
2022-10-04T01:48:00.711Z,93.63
2022-10-04T01:50:41.502Z,93.76
2022-10-04T01:53:24.193Z,93.85
2022-10-04T01:56:06.890Z,93.99
2022-10-04T01:58:50.090Z,94.14
2022-10-04T02:01:29.524Z,94.18
2022-10-04T02:04:03.376Z,94.33
2022-10-04T02:06:39.459Z,94.51
2022-10-04T02:09:21.793Z,94.40
2022-10-04T02:11:52.574Z,94.48
2022-10-04T02:14:25.048Z,94.52
2022-10-04T02:16:54.163Z,94.62
2022-10-04T02:19:34.719Z,94.79
2022-10-04T02:22:06.728Z,94.76
2022-10-04T02:24:39.237Z,94.95
2022-10-04T02:27:09.915Z,95.03
2022-10-04T02:29:41.030Z,95.01
2022-10-04T02:32:30.063Z,95.00
2022-10-04T02:35:00.289Z,95.06
2022-10-04T02:37:30.835Z,95.23
2022-10-04T02:40:12.922Z,95.42
2022-10-04T02:42:50.835Z,95.50
2022-10-04T02:45:30.959Z,95.58
2022-10-04T02:48:04.609Z,95.70
2022-10-04T02:50:39.440Z,95.84
2022-10-04T02:53:37.512Z,95.95
2022-10-04T02:56:09.161Z,95.91
2022-10-04T02:58:39.680Z,95.89
2022-10-04T03:01:17.156Z,95.46
2022-10-04T03:03:47.351Z,95.33
2022-10-04T03:06:19.736Z,95.17
2022-10-04T03:08:58.573Z,94.82
2022-10-04T03:11:36.710Z,94.65
2022-10-04T03:14:20.619Z,94.59
2022-10-04T03:16:54.301Z,94.41
2022-10-04T03:19:26.625Z,94.26
2022-10-04T03:22:00.841Z,94.40
2022-10-04T03:24:38.018Z,94.18
2022-10-04T03:27:08.463Z,94.18
2022-10-04T03:29:40.115Z,94.13
2022-10-04T03:32:13.498Z,94.18
2022-10-04T03:34:45.239Z,94.17
2022-10-04T03:37:17.226Z,94.07
2022-10-04T03:39:48.852Z,93.99
2022-10-04T03:42:34.442Z,93.96
2022-10-04T03:45:15.426Z,93.90
2022-10-04T03:47:48.355Z,93.86
2022-10-04T03:50:24.720Z,93.61
2022-10-04T03:52:59.476Z,93.63
2022-10-04T03:55:42.290Z,93.45
2022-10-04T03:58:15.447Z,93.36
2022-10-04T04:01:02.254Z,93.25
2022-10-04T04:03:34.915Z,93.05
2022-10-04T04:06:06.072Z,93.02
2022-10-04T04:08:37.601Z,93.04
2022-10-04T04:11:11.481Z,92.96
2022-10-04T04:14:16.852Z,92.93
2022-10-04T04:16:46.362Z,92.93
2022-10-04T04:19:18.023Z,92.83
2022-10-04T04:21:48.369Z,92.97
2022-10-04T04:24:28.537Z,92.91
2022-10-04T04:27:01.281Z,92.98
2022-10-04T04:29:47.722Z,92.95
2022-10-04T04:32:29.913Z,92.96
2022-10-04T04:35:10.513Z,92.97
2022-10-04T04:37:39.904Z,93.06
2022-10-04T04:40:24.875Z,93.13
2022-10-04T04:42:54.391Z,93.22
2022-10-04T04:45:25.815Z,93.20
2022-10-04T04:47:57.340Z,93.23
2022-10-04T04:50:30.869Z,93.17
2022-10-04T04:53:24.350Z,93.18
2022-10-04T04:56:04.265Z,93.25
2022-10-04T04:58:37.549Z,93.34
2022-10-04T05:01:29.422Z,93.32
2022-10-04T05:04:07.228Z,93.35
2022-10-04T05:06:41.759Z,93.61
2022-10-04T05:09:34.686Z,93.75
2022-10-04T05:12:15.086Z,93.81
2022-10-04T05:14:51.906Z,93.92
2022-10-04T05:17:28.357Z,93.98
2022-10-04T05:19:59.663Z,94.17
2022-10-04T05:22:30.155Z,94.21
2022-10-04T05:25:04.039Z,94.13
2022-10-04T05:27:45.377Z,94.07
2022-10-04T05:30:32.430Z,94.03
2022-10-04T05:33:25.193Z,94.13
2022-10-04T05:36:12.292Z,94.20
2022-10-04T05:38:57.685Z,94.14
2022-10-04T05:41:41.961Z,94.14
2022-10-04T05:44:28.427Z,94.26
2022-10-04T05:47:02.331Z,94.52
2022-10-04T05:49:39.517Z,94.63
2022-10-04T05:52:13.906Z,94.68
2022-10-04T05:54:44.726Z,94.56
2022-10-04T05:57:43.277Z,94.71
2022-10-04T06:00:22.247Z,94.67
2022-10-04T06:03:13.973Z,94.66
2022-10-04T06:06:07.093Z,94.88
2022-10-04T06:09:21.526Z,94.88
2022-10-04T06:12:06.643Z,94.76
2022-10-04T06:14:42.573Z,94.80
2022-10-04T06:17:35.105Z,94.72
2022-10-04T06:20:13.115Z,94.43
2022-10-04T06:22:47.310Z,94.18
2022-10-04T06:25:30.950Z,94.09
2022-10-04T06:28:12.311Z,93.77
2022-10-04T06:30:59.283Z,93.57
2022-10-04T06:33:46.827Z,93.28
2022-10-04T06:36:50.315Z,92.90
2022-10-04T06:39:55.350Z,92.66
2022-10-04T06:42:52.788Z,91.29
2022-10-04T06:45:53.421Z,90.86
2022-10-04T06:49:10.887Z,90.64
2022-10-04T06:52:17.266Z,90.01
2022-10-04T06:55:01.363Z,89.83
2022-10-04T06:58:00.042Z,89.20
2022-10-04T07:00:30.236Z,89.11
2022-10-04T07:03:04.712Z,89.27
2022-10-04T07:05:49.482Z,89.34
2022-10-04T07:08:33.976Z,89.19
2022-10-04T07:11:16.193Z,89.07
2022-10-04T07:14:02.769Z,89.18
2022-10-04T07:16:54.213Z,89.22
2022-10-04T07:19:49.060Z,88.98
2022-10-04T07:22:25.795Z,88.78
2022-10-04T07:25:11.498Z,88.41
2022-10-04T07:28:29.487Z,88.17
2022-10-04T07:31:13.510Z,88.06
2022-10-04T07:33:50.241Z,88.26
2022-10-04T07:36:25.105Z,88.33
2022-10-04T07:39:00.161Z,88.08
2022-10-04T07:41:35.647Z,87.69
2022-10-04T07:44:21.739Z,87.76
2022-10-04T07:47:22.972Z,87.07
2022-10-04T07:49:53.915Z,87.42
2022-10-04T07:52:48.118Z,87.62
2022-10-04T07:55:28.867Z,87.91
2022-10-04T07:58:25.685Z,88.00
2022-10-04T08:01:20.796Z,87.31
2022-10-04T08:04:07.660Z,87.73
2022-10-04T08:07:01.815Z,87.82
2022-10-04T08:10:06.941Z,87.76
2022-10-04T08:12:53.965Z,87.53
2022-10-04T08:15:39.806Z,87.73
2022-10-04T08:18:52.383Z,88.02
2022-10-04T08:21:26.583Z,88.05
2022-10-04T08:24:11.391Z,88.47
2022-10-04T08:27:14.486Z,87.31
2022-10-04T08:29:54.491Z,87.53
2022-10-04T08:32:55.833Z,87.50
2022-10-04T08:35:39.826Z,87.32
2022-10-04T08:38:28.866Z,86.82
2022-10-04T08:41:36.862Z,86.67
2022-10-04T08:44:46.604Z,86.29
2022-10-04T08:48:05.980Z,85.99
2022-10-04T08:50:50.171Z,86.04
2022-10-04T08:53:46.492Z,86.18
2022-10-04T08:56:38.524Z,85.82
2022-10-04T08:59:46.301Z,85.82
2022-10-04T09:02:37.135Z,85.72
2022-10-04T09:05:34.285Z,85.24
2022-10-04T09:08:42.214Z,85.58
2022-10-04T09:11:43.744Z,85.82
2022-10-04T09:14:32.950Z,85.96
2022-10-04T09:17:23.904Z,86.19
2022-10-04T09:20:36.664Z,86.14
2022-10-04T09:22:52.651Z,86.59
2022-10-04T09:25:38.998Z,86.66
2022-10-04T09:28:23.890Z,86.79
2022-10-04T09:30:58.670Z,86.29
2022-10-04T09:33:51.675Z,86.57
2022-10-04T09:36:52.140Z,86.78
2022-10-04T09:40:00.682Z,86.86
2022-10-04T09:42:41.555Z,87.32
2022-10-04T09:45:34.121Z,87.30
2022-10-04T09:48:29.450Z,87.56
2022-10-04T09:51:09.821Z,87.72
2022-10-04T09:54:28.808Z,87.76
2022-10-04T09:57:17.075Z,87.68
2022-10-04T10:00:17.595Z,87.39
2022-10-04T10:03:10.940Z,87.45
2022-10-04T10:05:58.946Z,86.92
2022-10-04T10:09:10.274Z,86.18
2022-10-04T10:12:21.710Z,85.36
2022-10-04T10:15:23.789Z,84.44
2022-10-04T10:18:07.229Z,84.45
2022-10-04T10:20:53.939Z,84.95
2022-10-04T10:23:46.461Z,85.18
2022-10-04T10:26:38.378Z,85.46
2022-10-04T10:29:36.629Z,85.61
2022-10-04T10:32:22.684Z,85.93
2022-10-04T10:35:20.282Z,86.49
2022-10-04T10:38:22.606Z,86.73
2022-10-04T10:41:05.819Z,87.06
2022-10-04T10:44:08.425Z,87.44
2022-10-04T10:47:01.084Z,87.64
2022-10-04T10:49:59.836Z,87.78
2022-10-04T10:52:48.157Z,88.08
2022-10-04T10:55:47.640Z,88.55
2022-10-04T10:58:40.190Z,88.95
2022-10-04T11:01:32.834Z,89.11
2022-10-04T11:04:24.903Z,89.25
2022-10-04T11:07:39.855Z,89.60
2022-10-04T11:10:43.325Z,89.70
2022-10-04T11:13:31.515Z,89.70
2022-10-04T11:16:48.008Z,89.55
2022-10-04T11:19:46.418Z,89.30
2022-10-04T11:22:44.352Z,89.26
2022-10-04T11:25:33.654Z,89.18
2022-10-04T11:28:12.547Z,88.53
2022-10-04T11:31:30.384Z,87.79
2022-10-04T11:34:24.334Z,87.34
2022-10-04T11:37:10.076Z,87.28
2022-10-04T11:39:53.612Z,87.22
2022-10-04T11:42:49.183Z,86.96
2022-10-04T11:45:49.571Z,86.76
2022-10-04T11:48:44.305Z,86.53
2022-10-04T11:51:48.413Z,86.72
2022-10-04T11:54:38.964Z,86.57
2022-10-04T11:57:28.446Z,86.81
2022-10-04T12:00:20.711Z,86.35
2022-10-04T12:03:21.873Z,86.09
2022-10-04T12:06:34.270Z,85.75
2022-10-04T12:09:28.169Z,86.06
2022-10-04T12:12:36.800Z,86.01
2022-10-04T12:15:24.108Z,86.01
2022-10-04T12:18:33.127Z,85.67
2022-10-04T12:21:22.793Z,85.06
2022-10-04T12:24:16.704Z,84.78
2022-10-04T12:27:25.624Z,84.22
2022-10-04T12:30:26.219Z,83.88
2022-10-04T12:33:21.909Z,83.74
2022-10-04T12:36:25.959Z,83.32
2022-10-04T12:39:04.808Z,83.23
2022-10-04T12:42:07.416Z,82.90
2022-10-04T12:45:08.709Z,82.27
2022-10-04T12:48:03.450Z,80.60
2022-10-04T12:50:54.389Z,80.46
2022-10-04T12:53:34.617Z,80.28
2022-10-04T12:56:38.612Z,80.14
2022-10-04T12:59:45.439Z,80.39
2022-10-04T13:02:45.573Z,80.40
2022-10-04T13:05:51.921Z,80.17
2022-10-04T13:09:04.447Z,80.62
2022-10-04T13:12:05.891Z,81.19
2022-10-04T13:14:46.907Z,81.59
2022-10-04T13:17:36.356Z,81.91
2022-10-04T13:20:34.517Z,82.14
2022-10-04T13:23:20.767Z,82.30
2022-10-04T13:26:27.985Z,82.67
2022-10-04T13:29:34.080Z,82.79
2022-10-04T13:32:07.679Z,82.90
2022-10-04T13:34:53.885Z,82.49
2022-10-04T13:37:48.901Z,82.77
2022-10-04T13:40:38.039Z,82.84
2022-10-04T13:43:47.028Z,83.02
2022-10-04T13:46:56.436Z,82.93
2022-10-04T13:50:03.892Z,82.84
2022-10-04T13:53:28.532Z,83.00
2022-10-04T13:56:30.675Z,82.96
2022-10-04T13:59:35.455Z,83.20
2022-10-04T14:02:22.145Z,83.39
2022-10-04T14:05:25.558Z,82.99
2022-10-04T14:08:27.811Z,83.17
2022-10-04T14:11:29.966Z,83.48
2022-10-04T14:14:27.302Z,83.31
2022-10-04T14:17:27.155Z,83.64
2022-10-04T14:20:13.180Z,83.91
2022-10-04T14:23:07.225Z,84.29
2022-10-04T14:25:58.955Z,84.58
2022-10-04T14:28:54.459Z,84.79
2022-10-04T14:31:48.381Z,85.14
2022-10-04T14:34:50.378Z,85.47
2022-10-04T14:37:57.856Z,85.56
2022-10-04T14:41:01.027Z,85.74
2022-10-04T14:44:13.061Z,86.11
2022-10-04T14:47:02.313Z,86.34
2022-10-04T14:50:09.886Z,86.55
2022-10-04T14:52:53.826Z,86.69
2022-10-04T14:56:06.052Z,86.79
2022-10-04T14:59:16.777Z,87.56
2022-10-04T15:02:21.934Z,87.61
2022-10-04T15:05:31.782Z,87.66
2022-10-04T15:08:25.489Z,87.77
2022-10-04T15:11:09.046Z,87.68
2022-10-04T15:14:00.963Z,87.63
2022-10-04T15:16:57.994Z,87.85
2022-10-04T15:19:31.792Z,87.82
2022-10-04T15:22:33.418Z,87.94
2022-10-04T15:25:04.377Z,88.09
2022-10-04T15:27:49.092Z,87.98
2022-10-04T15:30:27.147Z,87.89
2022-10-04T15:33:18.127Z,87.84
2022-10-04T15:36:10.631Z,87.79
2022-10-04T15:38:55.811Z,87.72
2022-10-04T15:41:38.899Z,87.58
2022-10-04T15:44:22.085Z,87.70
2022-10-04T15:47:12.150Z,87.58
2022-10-04T15:50:30.544Z,87.48
2022-10-04T15:53:39.917Z,87.32
2022-10-04T15:56:37.799Z,87.29
2022-10-04T15:59:47.081Z,87.44
2022-10-04T16:02:40.782Z,87.54
2022-10-04T16:05:34.836Z,87.49
2022-10-04T16:08:15.592Z,87.45
2022-10-04T16:11:15.722Z,87.53
2022-10-04T16:14:02.022Z,87.69
2022-10-04T16:16:48.821Z,87.47
2022-10-04T16:19:44.572Z,87.52
2022-10-04T16:22:22.758Z,87.59
2022-10-04T16:24:58.954Z,87.62
2022-10-04T16:27:51.908Z,87.73
2022-10-04T16:30:42.154Z,87.74
2022-10-04T16:33:39.522Z,87.74
2022-10-04T16:36:20.222Z,87.81
2022-10-04T16:39:11.323Z,88.00
2022-10-04T16:41:59.459Z,87.79
2022-10-04T16:44:37.239Z,87.76
2022-10-04T16:47:32.047Z,87.77
2022-10-04T16:50:03.370Z,87.87
2022-10-04T16:53:06.417Z,87.86
2022-10-04T16:55:56.910Z,87.59
2022-10-04T16:58:36.151Z,87.34
2022-10-04T17:01:41.349Z,86.95
2022-10-04T17:04:36.972Z,86.82
2022-10-04T17:07:34.247Z,86.75
2022-10-04T17:10:30.286Z,86.44
2022-10-04T17:13:16.845Z,86.45
2022-10-04T17:16:14.254Z,86.31
2022-10-04T17:19:05.774Z,86.29
2022-10-04T17:22:07.660Z,86.24
2022-10-04T17:25:24.552Z,86.24
2022-10-04T17:28:16.012Z,86.18
2022-10-04T17:31:10.473Z,86.22
2022-10-04T17:33:55.264Z,86.22
2022-10-04T17:36:50.849Z,86.18
2022-10-04T17:39:58.439Z,86.38
2022-10-04T17:43:00.032Z,86.43
2022-10-04T17:45:49.126Z,86.65
2022-10-04T17:48:53.251Z,86.95
2022-10-04T17:52:04.948Z,87.20
2022-10-04T17:55:06.696Z,87.51
2022-10-04T17:58:02.715Z,87.74
2022-10-04T18:01:00.476Z,87.99
2022-10-04T18:03:44.028Z,88.11
2022-10-04T18:06:38.479Z,88.31
2022-10-04T18:09:48.397Z,88.45
2022-10-04T18:12:42.499Z,88.73
2022-10-04T18:15:32.787Z,88.99
2022-10-04T18:18:16.394Z,89.23
2022-10-04T18:20:54.235Z,89.55
2022-10-04T18:23:30.369Z,89.80
2022-10-04T18:26:20.700Z,89.94
2022-10-04T18:28:50.536Z,90.16
2022-10-04T18:31:30.800Z,90.38
2022-10-04T18:34:18.211Z,90.52
2022-10-04T18:37:25.062Z,90.60
2022-10-04T18:39:55.860Z,90.68
2022-10-04T18:42:30.570Z,90.89
2022-10-04T18:45:02.042Z,91.07
2022-10-04T18:47:37.856Z,91.21
2022-10-04T18:50:35.314Z,91.29
2022-10-04T18:53:43.801Z,91.28
2022-10-04T18:56:15.491Z,91.22
2022-10-04T18:59:40.141Z,91.29
2022-10-04T19:02:45.590Z,91.24
2022-10-04T19:05:37.322Z,91.10
2022-10-04T19:08:21.086Z,90.99
2022-10-04T19:10:53.372Z,90.92
2022-10-04T19:13:40.326Z,90.90
2022-10-04T19:16:41.053Z,90.92
2022-10-04T19:19:18.476Z,90.83
2022-10-04T19:22:07.509Z,90.81
2022-10-04T19:25:05.878Z,90.71
2022-10-04T19:27:40.412Z,90.68
2022-10-04T19:30:26.521Z,90.61
2022-10-04T19:33:36.590Z,90.53
2022-10-04T19:36:22.972Z,90.33
2022-10-04T19:39:23.171Z,90.06
2022-10-04T19:42:01.982Z,89.84
2022-10-04T19:45:02.125Z,89.74
2022-10-04T19:47:57.658Z,89.60
2022-10-04T19:50:44.078Z,89.39
2022-10-04T19:53:28.402Z,89.24
2022-10-04T19:55:58.991Z,89.13
2022-10-04T19:58:58.527Z,88.99
2022-10-04T20:01:29.768Z,88.78
2022-10-04T20:04:17.257Z,88.62
2022-10-04T20:06:55.139Z,88.46
2022-10-04T20:09:27.080Z,88.27
2022-10-04T20:11:57.669Z,88.17
2022-10-04T20:14:35.529Z,88.10
2022-10-04T20:17:06.386Z,88.02
2022-10-04T20:19:41.641Z,88.11
2022-10-04T20:22:25.630Z,88.18
2022-10-04T20:24:57.535Z,88.13
2022-10-04T20:27:33.678Z,88.11
2022-10-04T20:30:13.917Z,88.06
2022-10-04T20:32:48.866Z,88.00
2022-10-04T20:35:56.322Z,88.01
2022-10-04T20:39:00.705Z,88.11
2022-10-04T20:41:54.107Z,88.10
2022-10-04T20:44:57.349Z,88.06
2022-10-04T20:47:46.368Z,88.11
2022-10-04T20:50:31.576Z,88.22
2022-10-04T20:53:23.279Z,88.36
2022-10-04T20:55:55.779Z,88.34
2022-10-04T20:58:34.754Z,88.40
2022-10-04T21:01:36.353Z,88.43
2022-10-04T21:04:41.032Z,88.51
2022-10-04T21:07:13.453Z,88.56
2022-10-04T21:09:43.010Z,88.62
2022-10-04T21:12:38.495Z,88.63
2022-10-04T21:15:21.580Z,88.55
2022-10-04T21:18:08.138Z,88.69
2022-10-04T21:20:47.100Z,88.83
2022-10-04T21:23:30.445Z,88.88
2022-10-04T21:26:22.810Z,88.94
2022-10-04T21:28:56.865Z,89.12
2022-10-04T21:31:25.610Z,89.25
2022-10-04T21:33:54.939Z,89.37
2022-10-04T21:36:23.776Z,89.43
2022-10-04T21:38:54.287Z,89.54
2022-10-04T21:41:23.158Z,89.60
2022-10-04T21:43:52.531Z,89.64
2022-10-04T21:46:22.423Z,89.80
2022-10-04T21:48:51.082Z,89.90
2022-10-04T21:51:20.442Z,89.95
